Time;durP1;ratioP1;P1;durP2;ratioP2;P2;SDS_P1;SDS_P2;PMS_P1;PMS_P2;Temp;Humidity;BMP_temperature;BMP_pressure;BME280_temperature;BME280_humidity;BME280_pressure;Samples;Min_cycle;Max_cycle;Signal;HPM_P1;HPM_P2
2021/08/08 08:29:26;;;;;;;6.25;3.52;;;;;;;22.63;63.53;97605.66;1864907;75;22798;-83
2021/08/08 08:31:55;;;;;;;5.05;3.62;;;;;;;22.70;63.32;97603.28;1861257;76;21398;-83
2021/08/08 08:34:25;;;;;;;13.53;4.60;;;;;;;22.81;63.29;97609.13;1822112;75;20987;-82
2021/08/08 08:36:52;;;;;;;4.15;3.33;;;;;;;22.90;62.90;97603.41;1860294;75;21464;-83
2021/08/08 08:39:28;;;;;;;5.90;3.58;;;;;;;23.01;62.19;97598.43;1894056;75;20985;-83
2021/08/08 08:42:05;;;;;;;4.17;3.27;;;;;;;23.12;61.55;97590.22;1896755;75;21365;-82
2021/08/08 08:44:36;;;;;;;5.12;3.55;;;;;;;23.26;61.77;97590.38;1858836;75;21104;-81
2021/08/08 08:47:04;;;;;;;5.33;3.02;;;;;;;23.38;60.50;97597.06;1880285;75;20964;-82
2021/08/08 08:49:31;;;;;;;5.20;3.50;;;;;;;23.48;60.33;97600.65;1865584;77;21049;-82
2021/08/08 08:52:05;;;;;;;5.45;3.45;;;;;;;23.60;60.05;97600.91;1865870;77;21060;-82
2021/08/08 08:54:33;;;;;;;5.67;3.42;;;;;;;23.74;59.10;97602.84;1865754;77;20952;-83
2021/08/08 08:57:00;;;;;;;5.87;3.20;;;;;;;23.84;59.60;97602.37;1884397;75;21000;-82
2021/08/08 08:59:28;;;;;;;3.37;3.08;;;;;;;23.98;58.13;97605.19;1900887;75;20961;-82
2021/08/08 09:01:57;;;;;;;4.00;3.30;;;;;;;24.24;58.21;97602.44;1900613;75;21481;-82
2021/08/08 09:04:23;;;;;;;4.62;3.15;;;;;;;24.31;57.68;97601.38;1900853;75;20989;-82
2021/08/08 09:06:50;;;;;;;3.22;2.92;;;;;;;24.31;57.68;97601.38;1899799;75;21422;-81
2021/08/08 09:09:17;;;;;;;42.62;32.65;;;;;;;24.43;57.80;97611.56;1875433;75;21409;-81
2021/08/08 09:11:47;;;;;;;25.77;20.77;;;;;;;24.52;57.27;97606.16;1864102;77;20977;-81
2021/08/08 09:14:15;;;;;;;8.50;6.17;;;;;;;24.61;55.99;97601.72;1863844;77;20984;-81
2021/08/08 09:16:55;;;;;;;3.45;3.10;;;;;;;24.72;55.94;97591.72;1864393;77;21074;-82
2021/08/08 09:19:34;;;;;;;3.27;2.98;;;;;;;24.89;55.26;97607.28;1865531;77;21409;-82
2021/08/08 09:22:05;;;;;;;5.05;2.85;;;;;;;25.01;55.26;97597.12;1863846;77;20999;-82
2021/08/08 09:24:37;;;;;;;4.53;2.90;;;;;;;25.14;54.12;97600.86;1865571;77;20960;-82
2021/08/08 09:27:09;;;;;;;4.17;3.02;;;;;;;25.25;52.93;97600.31;1868627;75;21382;-82
2021/08/08 09:29:41;;;;;;;3.33;2.60;;;;;;;25.37;53.18;97596.39;1863706;77;21024;-82
2021/08/08 09:32:09;;;;;;;5.53;2.72;;;;;;;25.50;53.04;97596.56;1863818;77;20992;-82
2021/08/08 09:34:42;;;;;;;4.40;2.65;;;;;;;25.62;53.23;97596.73;1833194;77;21039;-82
2021/08/08 09:37:19;;;;;;;3.00;2.70;;;;;;;25.70;51.80;97587.86;1883988;75;21391;-82
2021/08/08 09:39:53;;;;;;;5.40;2.55;;;;;;;25.82;50.05;97593.90;1900382;75;20989;-82
2021/08/08 09:42:26;;;;;;;6.30;2.42;;;;;;;25.96;51.60;97599.33;1900068;75;21020;-81
2021/08/08 09:44:56;;;;;;;;;;;;;;;26.08;49.99;97592.66;1902784;75;20972;-82
2021/08/08 09:47:43;;;;;;;2.85;2.45;;;;;;;26.23;50.18;97597.55;1844438;77;20079;-82
2021/08/08 09:50:17;;;;;;;3.12;2.60;;;;;;;26.33;49.50;97590.72;1856763;77;21051;-82
2021/08/08 09:53:03;;;;;;;3.52;2.30;;;;;;;26.46;48.37;97590.32;1861584;77;20936;-83
2021/08/08 09:55:37;;;;;;;2.85;2.50;;;;;;;26.63;47.72;97594.03;1863429;77;21402;-84
2021/08/08 09:58:11;;;;;;;3.17;2.17;;;;;;;26.81;48.47;97587.71;1897052;75;21308;-84
2021/08/08 10:00:40;;;;;;;3.12;2.30;;;;;;;26.94;46.03;97585.95;1899383;75;20966;-83
2021/08/08 10:03:11;;;;;;;5.22;2.77;;;;;;;27.12;45.55;97585.89;1900024;75;20989;-84
2021/08/08 10:05:40;;;;;;;4.17;2.30;;;;;;;27.31;46.40;97573.07;1878684;75;21018;-83
2021/08/08 10:08:14;;;;;;;2.80;2.17;;;;;;;27.41;44.89;97583.31;1863318;77;21031;-83
2021/08/08 10:10:47;;;;;;;2.85;2.47;;;;;;;27.51;45.29;97580.45;1863255;77;21047;-83
2021/08/08 10:13:52;;;;;;;4.75;2.50;;;;;;;27.66;44.51;97576.64;1863226;77;20976;-83
2021/08/08 10:16:21;;;;;;;2.52;2.20;;;;;;;27.83;43.34;97569.87;1864487;77;20976;-84
2021/08/08 10:18:56;;;;;;;2.52;2.33;;;;;;;27.99;43.43;97572.64;1864803;77;21079;-83
2021/08/08 10:21:23;;;;;;;2.40;1.92;;;;;;;28.07;43.25;97571.28;1865385;77;20971;-83
2021/08/08 10:23:53;;;;;;;2.60;2.40;;;;;;;28.19;42.95;97572.34;1864938;77;21354;-83
2021/08/08 10:26:20;;;;;;;2.47;2.25;;;;;;;28.23;41.25;97572.31;1865495;75;20984;-83
2021/08/08 10:28:52;;;;;;;2.33;2.12;;;;;;;28.30;42.30;97567.94;1859371;77;21032;-82
2021/08/08 10:31:22;;;;;;;3.45;2.17;;;;;;;28.40;40.16;97571.84;1854337;77;21050;-83
2021/08/08 10:33:52;;;;;;;2.50;2.20;;;;;;;28.45;40.87;97566.73;1854306;77;20966;-83
2021/08/08 10:36:22;;;;;;;2.42;2.20;;;;;;;28.50;41.16;97576.27;1882098;76;21367;-83
2021/08/08 10:38:51;;;;;;;3.42;2.00;;;;;;;28.60;41.45;97571.50;1888779;76;20960;-83
2021/08/08 10:41:18;;;;;;;2.40;2.20;;;;;;;28.73;41.29;97571.00;1888652;76;20990;-83
2021/08/08 10:43:45;;;;;;;3.10;2.15;;;;;;;28.85;40.33;97575.06;1888844;76;20963;-83
2021/08/08 10:46:16;;;;;;;3.98;3.62;;;;;;;28.97;39.57;97577.45;1862111;76;21020;-83
2021/08/08 10:48:45;;;;;;;8.08;7.22;;;;;;;29.41;40.26;97571.18;1853927;77;21058;-83
2021/08/08 10:51:26;;;;;;;3.55;2.72;;;;;;;30.53;38.01;97580.13;1854137;77;20978;-83
2021/08/08 10:54:06;;;;;;;3.50;2.20;;;;;;;31.59;36.21;97569.66;1828100;77;21451;-84
2021/08/08 10:56:45;;;;;;;2.67;2.33;;;;;;;32.83;33.33;97578.44;1864958;76;20922;-84
2021/08/08 10:59:26;;;;;;;3.45;2.47;;;;;;;33.87;33.07;97569.56;1888680;76;21022;-83
2021/08/08 11:02:10;;;;;;;4.15;2.52;;;;;;;34.82;32.61;97569.77;1888613;76;20966;-83
2021/08/08 11:04:37;;;;;;;2.85;2.30;;;;;;;35.66;30.61;97582.99;1885625;76;20994;-83
2021/08/08 11:07:06;;;;;;;4.12;2.17;;;;;;;36.29;29.49;97568.98;1801428;77;20974;-84
2021/08/08 11:09:35;;;;;;;4.37;2.08;;;;;;;36.81;24.98;97572.13;1854246;77;21036;-83
2021/08/08 11:12:03;;;;;;;2.95;2.40;;;;;;;37.08;26.30;97573.27;1854135;77;21021;-83
2021/08/08 11:14:30;;;;;;;2.65;2.40;;;;;;;37.62;27.17;97567.73;1828798;76;20950;-83
2021/08/08 11:17:05;;;;;;;2.35;2.15;;;;;;;38.24;26.07;97571.41;1861157;76;21396;-83
2021/08/08 11:19:38;;;;;;;2.55;2.35;;;;;;;38.67;25.43;97571.72;1888803;76;21436;-84
2021/08/08 11:22:18;;;;;;;3.47;2.75;;;;;;;39.06;24.73;97572.66;1888543;76;21471;-84
2021/08/08 11:25:02;;;;;;;4.47;3.05;;;;;;;39.20;24.47;97571.89;1884148;76;21072;-84
2021/08/08 11:27:43;;;;;;;3.60;3.17;;;;;;;39.58;24.49;97573.84;1854345;77;21006;-83
2021/08/08 11:30:17;;;;;;;3.20;2.77;;;;;;;39.94;24.10;97575.66;1853949;77;20974;-84
2021/08/08 11:32:45;;;;;;;3.27;2.80;;;;;;;40.12;22.59;97563.02;1854248;77;21016;-84
2021/08/08 11:35:15;;;;;;;6.55;6.03;;;;;;;40.21;22.70;97566.75;1864279;76;20989;-84
2021/08/08 11:37:46;;;;;;;4.08;3.67;;;;;;;40.50;22.85;97559.80;1888549;76;21002;-84
2021/08/08 11:40:28;;;;;;;3.40;2.90;;;;;;;40.99;22.34;97563.94;1888668;76;21053;-82
2021/08/08 11:43:05;;;;;;;3.80;2.80;;;;;;;41.02;21.79;97562.87;1888836;76;20962;-81
2021/08/08 11:45:43;;;;;;;3.40;2.72;;;;;;;40.77;19.70;97557.76;1873705;76;21013;-81
2021/08/08 11:48:17;;;;;;;2.75;2.50;;;;;;;40.78;21.32;97563.06;1854078;77;21384;-81
2021/08/08 11:50:46;;;;;;;2.95;2.65;;;;;;;40.97;21.54;97566.97;1854013;77;21036;-81
2021/08/08 11:53:13;;;;;;;4.15;2.60;;;;;;;41.37;21.38;97563.69;1833505;76;20942;-82
2021/08/08 11:55:39;;;;;;;4.60;2.90;;;;;;;41.48;20.67;97564.67;1888766;76;21026;-82
2021/08/08 11:58:13;;;;;;;3.65;2.58;;;;;;;41.67;20.65;97564.36;1873570;76;20962;-81
2021/08/08 12:00:41;;;;;;;2.17;1.98;;;;;;;41.75;20.43;97567.27;1854213;77;20955;-82
2021/08/08 12:03:10;;;;;;;2.90;2.70;;;;;;;42.01;20.20;97568.94;1857970;76;21348;-82
2021/08/08 12:05:41;;;;;;;2.30;2.10;;;;;;;42.18;19.53;97562.73;1888787;76;21064;-83
2021/08/08 12:08:09;;;;;;;3.65;3.22;;;;;;;42.38;19.75;97566.83;1888797;76;21483;-83
2021/08/08 12:10:38;;;;;;;3.27;2.98;;;;;;;42.66;19.29;97557.91;1888654;76;20955;-83
2021/08/08 12:13:17;;;;;;;3.65;2.40;;;;;;;42.60;18.61;97568.73;1885886;76;20952;-84
2021/08/08 12:15:44;;;;;;;3.20;2.20;;;;;;;42.62;19.17;97566.52;1854068;77;20982;-83
2021/08/08 12:18:11;;;;;;;3.02;2.37;;;;;;;42.84;18.82;97560.02;1854121;77;21013;-83
2021/08/08 12:20:40;;;;;;;2.77;2.55;;;;;;;43.03;18.58;97563.23;1854058;77;20974;-83
2021/08/08 12:23:12;;;;;;;2.70;2.50;;;;;;;43.05;17.79;97558.78;1856689;76;21049;-83
2021/08/08 12:25:42;;;;;;;3.50;2.40;;;;;;;43.21;18.40;97562.52;1887983;76;20954;-83
2021/08/08 12:28:09;;;;;;;3.00;2.40;;;;;;;43.51;17.94;97561.84;1889120;75;20978;-83
2021/08/08 12:30:37;;;;;;;3.40;2.27;;;;;;;43.17;17.65;97560.83;1903404;75;20961;-83
2021/08/08 12:33:07;;;;;;;3.02;2.30;;;;;;;43.09;17.71;97560.75;1900758;75;21000;-83
2021/08/08 12:35:37;;;;;;;2.45;2.25;;;;;;;43.36;17.89;97563.14;1866768;77;20948;-83
2021/08/08 12:38:15;;;;;;;3.50;2.60;;;;;;;43.44;17.38;97563.20;1866648;77;20988;-83
2021/08/08 12:40:51;;;;;;;2.80;2.25;;;;;;;43.63;17.51;97569.17;1866134;76;21434;-83
2021/08/08 12:43:26;;;;;;;4.87;2.33;;;;;;;43.94;17.40;97562.31;1866893;75;21338;-83
2021/08/08 12:45:54;;;;;;;2.70;2.50;;;;;;;43.76;17.26;97557.51;1868269;77;21035;-83
2021/08/08 12:48:31;;;;;;;4.87;2.65;;;;;;;43.62;17.64;97560.52;1868296;77;20980;-84
2021/08/08 12:50:58;;;;;;;2.87;2.67;;;;;;;43.52;17.19;97563.55;1868147;77;21039;-83
2021/08/08 12:53:25;;;;;;;2.62;2.42;;;;;;;43.36;17.29;97552.84;1866734;75;20951;-83
2021/08/08 12:55:55;;;;;;;2.20;2.10;;;;;;;43.08;17.49;97551.29;1866420;77;21016;-83
2021/08/08 12:58:24;;;;;;;2.98;2.60;;;;;;;42.95;17.83;97553.94;1866343;77;21281;-83
2021/08/08 13:00:50;;;;;;;2.67;2.45;;;;;;;43.03;18.12;97552.66;1852034;77;21023;-82
2021/08/08 13:03:17;;;;;;;2.95;2.50;;;;;;;43.06;17.71;97552.95;1868353;75;21500;-83
2021/08/08 13:05:44;;;;;;;2.40;2.20;;;;;;;42.88;18.00;97550.84;1868053;77;20968;-83
2021/08/08 13:08:10;;;;;;;2.40;2.20;;;;;;;43.00;17.34;97562.36;1868044;77;20996;-83
2021/08/08 13:10:37;;;;;;;2.55;2.35;;;;;;;42.37;17.28;97558.19;1868174;77;21543;-83
2021/08/08 13:13:03;;;;;;;2.60;2.20;;;;;;;42.48;17.82;97556.34;1866790;77;21003;-83
2021/08/08 13:15:30;;;;;;;9.05;2.42;;;;;;;42.58;17.67;97558.42;1866315;77;20964;-83
2021/08/08 13:17:56;;;;;;;2.50;2.30;;;;;;;43.01;17.79;97557.09;1866466;77;21485;-83
2021/08/08 13:20:26;;;;;;;2.47;2.27;;;;;;;43.23;17.00;97554.16;1866673;77;20995;-84
2021/08/08 13:22:53;;;;;;;2.50;2.30;;;;;;;43.34;17.07;97552.83;1867426;77;20984;-83
2021/08/08 13:25:19;;;;;;;3.40;2.42;;;;;;;43.29;16.88;97549.44;1868411;77;21027;-83
2021/08/08 13:27:45;;;;;;;2.98;2.30;;;;;;;43.10;16.82;97551.84;1868290;77;21405;-84
2021/08/08 13:30:12;;;;;;;3.35;2.52;;;;;;;42.94;17.09;97546.69;1857192;77;21017;-83
2021/08/08 13:32:39;;;;;;;3.55;2.58;;;;;;;43.02;16.97;97550.95;1870627;76;21033;-83
2021/08/08 13:35:06;;;;;;;2.30;2.00;;;;;;;43.22;16.50;97549.70;1888526;76;20954;-83
2021/08/08 13:37:32;;;;;;;5.70;2.40;;;;;;;43.00;16.62;97555.39;1888564;76;21029;-84
2021/08/08 13:39:59;;;;;;;2.33;2.10;;;;;;;42.77;17.02;97553.27;1888889;76;20965;-84
2021/08/08 13:42:25;;;;;;;3.58;2.40;;;;;;;42.67;17.32;97552.63;1875644;76;21084;-84
2021/08/08 13:44:52;;;;;;;2.72;2.25;;;;;;;41.86;17.42;97548.73;1854196;77;20997;-84
2021/08/08 13:47:18;;;;;;;2.50;2.30;;;;;;;41.72;18.15;97552.45;1854189;77;20997;-83
2021/08/08 13:49:45;;;;;;;2.77;2.10;;;;;;;42.08;17.71;97547.30;1854104;77;21032;-84
2021/08/08 13:52:11;;;;;;;2.92;2.72;;;;;;;42.07;17.69;97550.65;1863685;76;20997;-83
2021/08/08 13:54:38;;;;;;;3.50;2.58;;;;;;;42.13;18.06;97547.34;1888781;76;21427;-83
2021/08/08 13:57:05;;;;;;;2.50;2.25;;;;;;;42.43;17.79;97546.02;1888753;76;20970;-83
2021/08/08 13:59:31;;;;;;;2.80;2.35;;;;;;;42.74;17.47;97540.72;1888982;76;21026;-82
2021/08/08 14:01:58;;;;;;;4.97;2.40;;;;;;;42.42;16.96;97537.34;1888118;75;20982;-83
2021/08/08 14:04:24;;;;;;;2.98;2.40;;;;;;;41.95;17.43;97544.38;1888777;76;21028;-83
2021/08/08 14:06:51;;;;;;;2.95;2.35;;;;;;;41.78;17.71;97545.86;1861833;76;22102;-83
2021/08/08 14:09:17;;;;;;;3.60;2.70;;;;;;;41.78;18.01;97543.94;1888953;76;21025;-83
2021/08/08 14:11:44;;;;;;;2.40;2.20;;;;;;;41.33;18.10;97550.01;1886802;76;20969;-84
2021/08/08 14:14:10;;;;;;;2.85;2.47;;;;;;;41.15;18.84;97549.20;1888368;76;20962;-84
2021/08/08 14:16:36;;;;;;;3.42;2.45;;;;;;;41.57;18.43;97548.38;1888725;76;21006;-83
2021/08/08 14:19:02;;;;;;;2.50;2.30;;;;;;;41.81;18.24;97556.48;1888702;76;21072;-83
2021/08/08 14:21:29;;;;;;;3.92;2.50;;;;;;;41.74;18.18;97550.26;1888794;75;20991;-83
2021/08/08 14:23:55;;;;;;;2.58;2.37;;;;;;;41.45;18.02;97554.63;1855614;76;21398;-83
2021/08/08 14:26:21;;;;;;;4.60;2.50;;;;;;;41.00;19.06;97553.97;1854138;77;21033;-83
2021/08/08 14:28:48;;;;;;;3.90;2.40;;;;;;;41.31;19.04;97550.83;1853053;77;21038;-83
2021/08/08 14:31:15;;;;;;;3.67;2.30;;;;;;;41.52;19.00;97550.55;1840092;78;20991;-83
2021/08/08 14:33:41;;;;;;;2.85;2.45;;;;;;;41.73;18.74;97545.80;1838015;78;21343;-83
2021/08/08 14:36:08;;;;;;;2.65;2.45;;;;;;;41.74;18.62;97551.65;1838063;78;21039;-83
2021/08/08 14:38:34;;;;;;;3.22;2.50;;;;;;;41.83;18.74;97554.27;1837912;78;21019;-83
2021/08/08 14:41:01;;;;;;;3.17;2.27;;;;;;;41.73;18.89;97554.15;1837894;78;20984;-84
2021/08/08 14:43:27;;;;;;;2.42;2.22;;;;;;;41.37;19.06;97551.72;1837920;78;21026;-83
2021/08/08 14:45:54;;;;;;;3.08;2.10;;;;;;;41.33;19.64;97561.13;1837994;78;20932;-83
2021/08/08 14:48:20;;;;;;;3.55;2.10;;;;;;;41.21;18.85;97554.26;1837964;78;20933;-83
2021/08/08 14:50:47;;;;;;;4.42;2.17;;;;;;;40.95;19.64;97552.50;1838089;78;20999;-83
2021/08/08 14:53:13;;;;;;;5.87;2.12;;;;;;;40.83;19.31;97551.72;1839680;78;20947;-83
2021/08/08 14:55:40;;;;;;;3.87;2.33;;;;;;;40.63;19.47;97564.17;1839752;78;21404;-83
2021/08/08 14:58:06;;;;;;;2.75;2.45;;;;;;;40.33;19.67;97552.28;1811888;78;21002;-83
2021/08/08 15:00:33;;;;;;;5.37;2.60;;;;;;;40.05;19.91;97549.82;1839150;78;20991;-83
2021/08/08 15:02:59;;;;;;;2.45;2.22;;;;;;;40.11;19.75;97557.17;1837811;78;20949;-83
2021/08/08 15:05:25;;;;;;;5.05;2.30;;;;;;;40.23;19.87;97554.87;1837908;78;20960;-83
2021/08/08 15:07:52;;;;;;;2.77;2.15;;;;;;;40.16;19.85;97559.19;1837875;78;21054;-83
2021/08/08 15:10:18;;;;;;;3.02;2.80;;;;;;;39.98;20.15;97556.08;1837950;78;20965;-83
2021/08/08 15:12:45;;;;;;;4.92;2.80;;;;;;;39.84;20.28;97566.58;1839721;78;20975;-84
2021/08/08 15:15:11;;;;;;;3.17;2.30;;;;;;;39.80;20.90;97564.84;1839605;78;20982;-84
2021/08/08 15:17:38;;;;;;;4.75;2.17;;;;;;;40.30;20.38;97567.20;1839538;78;21038;-83
2021/08/08 15:20:06;;;;;;;3.60;2.40;;;;;;;40.63;19.47;97556.70;1839597;78;20951;-83
2021/08/08 15:22:33;;;;;;;4.78;2.47;;;;;;;40.56;19.40;97558.81;1806579;79;20999;-83
2021/08/08 15:24:59;;;;;;;4.55;2.50;;;;;;;40.39;19.53;97560.16;1806646;79;21022;-83
2021/08/08 15:27:26;;;;;;;3.25;2.22;;;;;;;40.39;19.86;97556.85;1806795;79;21103;-83
2021/08/08 15:29:52;;;;;;;2.50;2.30;;;;;;;40.03;19.93;97562.26;1816147;77;21416;-82
2021/08/08 15:32:19;;;;;;;3.05;2.55;;;;;;;39.42;20.35;97567.09;1862209;77;20961;-82
2021/08/08 15:34:45;;;;;;;2.60;2.40;;;;;;;38.69;21.10;97565.95;1865191;77;20995;-83
2021/08/08 15:37:11;;;;;;;2.30;2.10;;;;;;;38.14;21.59;97562.28;1864739;77;21027;-83
2021/08/08 15:39:38;;;;;;;6.17;2.20;;;;;;;37.73;22.08;97567.51;1864840;77;21042;-83
2021/08/08 15:42:06;;;;;;;4.92;2.37;;;;;;;37.16;22.64;97568.02;1864191;75;20953;-83
2021/08/08 15:44:33;;;;;;;2.98;2.00;;;;;;;36.66;23.31;97566.11;1862916;77;20980;-83
2021/08/08 15:46:59;;;;;;;3.60;2.30;;;;;;;36.27;23.71;97564.23;1862952;77;21469;-83
2021/08/08 15:49:25;;;;;;;2.37;2.17;;;;;;;35.78;24.27;97561.93;1862987;77;21007;-83
2021/08/08 15:51:52;;;;;;;3.90;2.50;;;;;;;35.50;24.81;97567.75;1864363;75;20987;-82
2021/08/08 15:54:18;;;;;;;2.95;2.12;;;;;;;35.22;25.28;97563.38;1865008;77;20936;-83
2021/08/08 15:56:44;;;;;;;2.95;2.22;;;;;;;34.84;25.76;97565.75;1864766;77;20980;-82
2021/08/08 15:59:11;;;;;;;3.22;2.50;;;;;;;34.49;26.08;97561.27;1864992;77;20960;-83
2021/08/08 16:01:37;;;;;;;3.02;2.72;;;;;;;34.14;26.54;97562.80;1863736;77;20995;-82
2021/08/08 16:04:04;;;;;;;3.75;2.40;;;;;;;33.85;27.00;97564.81;1862972;77;20963;-82
2021/08/08 16:06:30;;;;;;;5.15;3.50;;;;;;;33.49;27.43;97553.55;1863014;77;21389;-82
2021/08/08 16:08:57;;;;;;;14.63;12.82;;;;;;;33.18;27.98;97561.20;1863229;77;20991;-82
2021/08/08 16:11:23;;;;;;;3.40;2.90;;;;;;;32.86;28.05;97556.61;1863734;77;20987;-83
2021/08/08 16:13:50;;;;;;;3.72;2.45;;;;;;;32.60;28.46;97567.20;1864920;77;20995;-82
2021/08/08 16:16:16;;;;;;;2.87;2.27;;;;;;;32.40;28.91;97563.73;1865007;77;21007;-82
2021/08/08 16:18:42;;;;;;;3.72;2.25;;;;;;;32.20;29.22;97560.78;1864940;77;21018;-82
2021/08/08 16:21:09;;;;;;;3.75;2.85;;;;;;;31.95;29.63;97565.27;1865548;75;21433;-83
2021/08/08 16:23:36;;;;;;;2.70;2.20;;;;;;;31.74;30.12;97568.27;1864737;77;21371;-82
2021/08/08 16:26:03;;;;;;;5.50;2.10;;;;;;;31.53;30.27;97565.45;1864640;77;21436;-82
2021/08/08 16:28:34;;;;;;;2.52;2.10;;;;;;;31.30;31.02;97564.53;1864557;77;21460;-82
2021/08/08 16:30:57;;;;;;;5.55;2.27;;;;;;;31.08;31.86;97569.03;1863698;77;21484;-83
2021/08/08 16:33:24;;;;;;;4.00;2.25;;;;;;;30.94;31.49;97574.30;1862806;77;20976;-83
2021/08/08 16:35:50;;;;;;;2.42;2.22;;;;;;;30.81;31.91;97568.09;1863024;77;20972;-83
2021/08/08 16:38:17;;;;;;;3.77;2.50;;;;;;;30.62;32.28;97572.19;1862985;77;21059;-82
2021/08/08 16:40:44;;;;;;;3.77;2.30;;;;;;;30.45;32.65;97574.72;1866420;75;20985;-83
2021/08/08 16:43:10;;;;;;;3.47;2.30;;;;;;;30.26;33.06;97575.03;1865525;75;21019;-82
2021/08/08 16:45:36;;;;;;;4.25;2.20;;;;;;;30.10;33.34;97584.16;1864902;77;21419;-82
2021/08/08 16:48:04;;;;;;;3.55;2.50;;;;;;;29.91;33.74;97584.12;1865325;77;20996;-82
2021/08/08 16:50:31;;;;;;;4.28;2.67;;;;;;;29.74;34.06;97580.13;1865163;75;20964;-82
2021/08/08 16:52:57;;;;;;;3.72;2.52;;;;;;;29.60;34.77;97577.61;1865156;75;21031;-82
2021/08/08 16:55:24;;;;;;;5.58;3.20;;;;;;;29.51;34.86;97575.95;1865066;77;21342;-83
2021/08/08 16:57:51;;;;;;;7.00;2.55;;;;;;;29.35;35.47;97576.32;1864964;77;20987;-82
2021/08/08 17:00:17;;;;;;;6.00;2.50;;;;;;;29.23;35.82;97581.84;1867404;75;21038;-82
2021/08/08 17:02:45;;;;;;;4.40;2.52;;;;;;;29.08;36.08;97574.88;1874137;75;21041;-81
2021/08/08 17:05:11;;;;;;;4.95;2.70;;;;;;;28.97;36.56;97581.03;1899987;75;20970;-82
2021/08/08 17:07:38;;;;;;;3.65;2.87;;;;;;;28.86;37.30;97584.11;1900175;75;20950;-82
2021/08/08 17:10:06;;;;;;;6.10;2.67;;;;;;;28.72;37.81;97579.68;1900121;75;21459;-82
2021/08/08 17:12:32;;;;;;;2.87;2.58;;;;;;;28.62;38.03;97581.73;1867522;75;21012;-82
2021/08/08 17:15:01;;;;;;;4.37;2.50;;;;;;;28.49;38.85;97580.89;1863207;77;20992;-82
2021/08/08 17:17:29;;;;;;;4.50;2.75;;;;;;;28.33;39.24;97579.88;1863211;77;21362;-82
2021/08/08 17:19:56;;;;;;;3.47;2.70;;;;;;;28.19;39.84;97578.61;1863334;77;20977;-82
2021/08/08 17:22:23;;;;;;;3.27;2.62;;;;;;;28.06;40.24;97587.28;1864344;77;20989;-82
2021/08/08 17:24:49;;;;;;;3.90;3.17;;;;;;;27.93;40.11;97580.97;1865063;77;20956;-82
2021/08/08 17:27:17;;;;;;;5.33;2.77;;;;;;;27.81;40.84;97586.36;1865074;77;21394;-82
2021/08/08 17:29:43;;;;;;;6.47;2.90;;;;;;;27.65;41.21;97588.55;1863769;77;20999;-83
2021/08/08 17:32:10;;;;;;;3.85;2.50;;;;;;;27.52;41.70;97591.17;1877783;76;20938;-82
2021/08/08 17:34:37;;;;;;;4.95;2.87;;;;;;;27.38;42.02;97599.46;1888630;76;21454;-83
2021/08/08 17:37:04;;;;;;;4.10;2.75;;;;;;;27.24;42.08;97604.14;1888888;76;21025;-82
2021/08/08 17:39:30;;;;;;;7.05;3.25;;;;;;;27.12;42.70;97607.64;1888883;76;21014;-82
2021/08/08 17:41:58;;;;;;;5.97;5.12;;;;;;;26.94;43.25;97609.06;1868590;76;21033;-82
2021/08/08 17:44:28;;;;;;;5.60;3.40;;;;;;;26.75;43.85;97602.25;1854426;76;20950;-82
2021/08/08 17:46:55;;;;;;;5.67;3.22;;;;;;;26.57;44.58;97617.23;1854268;77;21013;-83
2021/08/08 17:49:22;;;;;;;4.80;3.10;;;;;;;26.38;45.10;97614.20;1854264;77;21001;-81
2021/08/08 17:51:50;;;;;;;5.78;2.60;;;;;;;26.25;45.60;97614.59;1872054;76;20977;-82
2021/08/08 17:54:16;;;;;;;5.87;2.77;;;;;;;26.13;45.80;97617.14;1888889;76;21068;-82
2021/08/08 17:56:43;;;;;;;4.30;3.05;;;;;;;25.99;46.33;97617.17;1888936;76;21462;-83
2021/08/08 17:59:09;;;;;;;3.85;3.05;;;;;;;25.87;46.88;97616.53;1888875;76;20962;-82
2021/08/08 18:01:36;;;;;;;6.60;5.20;;;;;;;25.74;47.18;97611.47;1874309;76;20953;-82
2021/08/08 18:04:10;;;;;;;5.72;3.85;;;;;;;25.63;47.71;97608.45;1854414;77;20998;-82
2021/08/08 18:06:32;;;;;;;4.10;3.12;;;;;;;25.42;47.71;97617.14;1853530;77;21088;-82
2021/08/08 18:08:58;;;;;;;3.65;3.08;;;;;;;25.34;47.44;97616.19;1854279;77;21044;-82
2021/08/08 18:11:25;;;;;;;4.92;2.95;;;;;;;25.34;47.44;97616.19;1865397;76;21443;-82
2021/08/08 18:13:51;;;;;;;4.35;2.80;;;;;;;25.23;48.04;97631.64;1888987;76;20966;-82
2021/08/08 18:16:17;;;;;;;5.53;3.35;;;;;;;25.12;48.35;97629.12;1888838;75;21321;-82
2021/08/08 18:18:44;;;;;;;5.35;3.22;;;;;;;25.03;48.26;97619.98;1888597;76;21360;-83
2021/08/08 18:21:10;;;;;;;6.28;3.20;;;;;;;24.95;48.62;97631.56;1881109;76;21041;-82
2021/08/08 18:23:37;;;;;;;7.10;3.60;;;;;;;24.84;48.69;97629.90;1854247;77;21029;-82
2021/08/08 18:26:03;;;;;;;5.12;3.35;;;;;;;24.75;49.36;97637.51;1854552;77;21427;-82
2021/08/08 18:28:30;;;;;;;6.08;3.87;;;;;;;24.64;49.58;97643.44;1854477;77;20961;-82
2021/08/08 18:30:56;;;;;;;11.65;4.20;;;;;;;24.52;49.88;97642.73;1846852;76;21035;-82
2021/08/08 18:33:22;;;;;;;5.62;3.60;;;;;;;24.45;50.10;97653.77;1837761;78;21416;-83
2021/08/08 18:35:49;;;;;;;5.95;3.72;;;;;;;24.37;50.08;97645.52;1838007;78;20940;-82
2021/08/08 18:38:15;;;;;;;7.37;5.08;;;;;;;24.29;50.53;97647.55;1837780;78;21409;-83
2021/08/08 18:40:42;;;;;;;7.12;4.58;;;;;;;24.22;51.05;97647.77;1837782;78;21401;-83
2021/08/08 18:43:08;;;;;;;8.48;4.87;;;;;;;24.12;52.23;97652.67;1839674;78;20978;-83
2021/08/08 18:45:35;;;;;;;8.98;4.55;;;;;;;24.03;52.17;97659.41;1839676;78;20954;-83
2021/08/08 18:48:02;;;;;;;6.87;4.22;;;;;;;23.92;52.68;97657.66;1839656;78;21325;-82
2021/08/08 18:50:28;;;;;;;8.93;4.40;;;;;;;23.84;52.78;97655.13;1839775;78;20948;-83
2021/08/08 18:52:55;;;;;;;6.95;4.87;;;;;;;23.77;54.45;97654.47;1837899;77;21445;-82
2021/08/08 18:55:23;;;;;;;6.47;4.42;;;;;;;23.68;55.10;97661.09;1838105;78;21063;-83
2021/08/08 18:57:50;;;;;;;8.18;5.70;;;;;;;23.65;53.40;97655.94;1837939;78;20980;-83
2021/08/08 19:00:16;;;;;;;8.95;5.25;;;;;;;23.64;53.41;97656.94;1837972;78;20940;-83
2021/08/08 19:02:43;;;;;;;6.87;5.15;;;;;;;23.59;53.49;97657.84;1839193;78;20977;-84
2021/08/08 19:05:10;;;;;;;8.60;5.20;;;;;;;23.52;53.88;97662.94;1839689;78;20994;-83
2021/08/08 19:07:36;;;;;;;7.60;4.60;;;;;;;23.49;53.90;97667.26;1839569;78;21296;-81
2021/08/08 19:10:05;;;;;;;10.82;4.75;;;;;;;23.40;54.31;97669.42;1839494;78;21018;-83
2021/08/08 19:12:32;;;;;;;7.00;4.85;;;;;;;23.30;54.15;97668.84;1838177;78;21054;-83
2021/08/08 19:14:59;;;;;;;6.70;4.78;;;;;;;23.27;54.27;97673.67;1837866;78;20991;-83
2021/08/08 19:17:25;;;;;;;10.35;4.33;;;;;;;23.20;54.39;97673.34;1837829;78;20980;-82
2021/08/08 19:19:52;;;;;;;8.05;4.05;;;;;;;23.13;54.75;97667.61;1837809;78;21027;-83
2021/08/08 19:22:19;;;;;;;8.85;4.50;;;;;;;23.06;54.87;97674.55;1838834;78;21010;-83
2021/08/08 19:24:45;;;;;;;7.83;4.25;;;;;;;23.02;55.25;97673.97;1839572;78;20948;-82
2021/08/08 19:27:12;;;;;;;5.28;4.10;;;;;;;22.96;56.12;97677.17;1839530;78;21014;-82
2021/08/08 19:29:38;;;;;;;6.12;3.65;;;;;;;22.94;55.97;97677.81;1810181;78;20939;-82
2021/08/08 19:32:06;;;;;;;4.85;4.00;;;;;;;22.88;56.01;97679.70;1838532;76;20964;-82
2021/08/08 19:34:35;;;;;;;5.55;4.05;;;;;;;22.81;56.13;97684.28;1837916;78;21058;-82
2021/08/08 19:37:01;;;;;;;6.22;3.92;;;;;;;22.73;56.33;97680.02;1837782;77;21031;-82
2021/08/08 19:39:31;;;;;;;6.17;4.75;;;;;;;22.71;56.01;97684.67;1837991;78;21015;-82
2021/08/08 19:41:55;;;;;;;7.97;3.83;;;;;;;22.67;56.32;97689.48;1838304;78;21002;-82
2021/08/08 19:44:22;;;;;;;7.17;3.52;;;;;;;22.65;56.58;97678.45;1839766;78;20999;-82
2021/08/08 19:46:50;;;;;;;5.05;3.90;;;;;;;22.57;56.91;97690.39;1839378;78;21432;-82
2021/08/08 19:49:16;;;;;;;5.65;4.30;;;;;;;22.47;57.41;97686.23;1839938;78;21026;-82
2021/08/08 19:51:43;;;;;;;6.92;4.45;;;;;;;22.40;57.40;97679.14;1839159;78;20959;-82
2021/08/08 19:54:09;;;;;;;5.97;4.20;;;;;;;22.34;57.81;97679.66;1837854;78;21373;-82
2021/08/08 19:56:36;;;;;;;6.72;3.70;;;;;;;22.27;57.78;97683.36;1837768;78;20987;-83
2021/08/08 19:59:02;;;;;;;8.08;3.87;;;;;;;22.24;58.34;97687.65;1838025;78;21019;-82
2021/08/08 20:01:29;;;;;;;4.87;3.83;;;;;;;22.13;59.00;97684.00;1838318;78;21030;-82
2021/08/08 20:03:56;;;;;;;4.50;3.75;;;;;;;22.04;59.37;97685.27;1839611;78;20964;-82
2021/08/08 20:06:22;;;;;;;5.50;3.17;;;;;;;22.00;59.31;97679.23;1839528;78;20988;-82
2021/08/08 20:08:49;;;;;;;4.78;3.42;;;;;;;21.93;60.12;97678.91;1839529;78;21014;-82